Time;durP1;ratioP1;P1;durP2;ratioP2;P2;SDS_P1;SDS_P2;PMS_P1;PMS_P2;Temp;Humidity;BMP_temperature;BMP_pressure;BME280_temperature;BME280_humidity;BME280_pressure;Samples;Min_cycle;Max_cycle;Signal;HPM_P1;HPM_P2
2021/12/08 00:00:59;;;;;;;23.85;12.98;;;-1.70;99.90;;;;;;5079917;28;20127;-83
2021/12/08 00:03:28;;;;;;;21.15;13.48;;;-1.60;99.90;;;;;;5081220;28;20048;-83
2021/12/08 00:05:56;;;;;;;23.95;11.88;;;-1.70;99.90;;;;;;5099355;28;20507;-83
2021/12/08 00:08:24;;;;;;;18.25;11.98;;;-1.60;99.90;;;;;;5081538;28;20071;-83
2021/12/08 00:13:31;;;;;;;18.55;10.18;;;-1.70;99.90;;;;;;5100067;28;20068;-83
2021/12/08 00:16:02;;;;;;;23.50;10.45;;;-1.60;99.90;;;;;;5082554;28;20048;-83
2021/12/08 00:18:32;;;;;;;23.27;11.68;;;-1.60;99.90;;;;;;5102558;28;20079;-83
2021/12/08 00:21:02;;;;;;;22.65;11.88;;;-1.50;99.90;;;;;;5079372;28;20044;-83
2021/12/08 00:23:30;;;;;;;29.23;12.02;;;-1.40;99.90;;;;;;5078805;28;20136;-83
2021/12/08 00:25:58;;;;;;;23.80;11.80;;;-1.50;99.90;;;;;;5097502;28;20048;-82
2021/12/08 00:28:25;;;;;;;27.67;12.00;;;-1.40;99.90;;;;;;5096693;28;20457;-82
2021/12/08 00:30:56;;;;;;;23.70;11.60;;;-1.40;99.90;;;;;;5075033;28;20056;-83
2021/12/08 00:33:23;;;;;;;21.90;10.57;;;-1.30;99.90;;;;;;5076399;28;20055;-83
2021/12/08 00:35:52;;;;;;;20.15;9.95;;;-1.30;99.90;;;;;;5074714;28;20083;-83
2021/12/08 00:38:20;;;;;;;18.13;9.55;;;-1.30;99.90;;;;;;5074946;28;20467;-83
2021/12/08 00:40:49;;;;;;;23.08;10.85;;;-1.30;99.90;;;;;;5074292;28;20124;-83
2021/12/08 00:43:18;;;;;;;14.73;9.43;;;-1.30;99.90;;;;;;5075192;28;20473;-83
2021/12/08 00:45:49;;;;;;;26.58;10.90;;;-1.30;99.90;;;;;;5076394;28;20451;-83
2021/12/08 00:48:16;;;;;;;17.25;8.95;;;-1.30;99.90;;;;;;5076078;28;20064;-83
2021/12/08 00:50:44;;;;;;;25.10;8.52;;;-1.30;99.90;;;;;;5074032;28;20141;-83
2021/12/08 00:53:11;;;;;;;20.25;8.18;;;-1.40;99.90;;;;;;5076091;28;20100;-82
2021/12/08 00:55:38;;;;;;;27.70;8.45;;;-1.50;99.90;;;;;;5074330;28;20049;-82
2021/12/08 00:58:06;;;;;;;19.35;6.93;;;-1.50;99.90;;;;;;5074437;28;20098;-83
2021/12/08 01:00:36;;;;;;;17.73;8.80;;;-1.40;99.90;;;;;;5075937;28;20486;-83
2021/12/08 01:03:05;;;;;;;24.65;8.93;;;-1.40;99.90;;;;;;5073674;28;20128;-83
2021/12/08 01:05:36;;;;;;;24.40;9.55;;;-1.40;99.90;;;;;;5074308;28;20056;-83
2021/12/08 01:08:04;;;;;;;18.55;8.30;;;-1.40;99.90;;;;;;5076159;28;20056;-83
2021/12/08 01:10:31;;;;;;;16.45;7.13;;;-1.50;99.90;;;;;;5074398;28;20052;-83
2021/12/08 01:13:05;;;;;;;10.23;6.90;;;-1.50;99.90;;;;;;5074792;28;20053;-82
2021/12/08 01:15:33;;;;;;;14.18;6.47;;;-1.50;99.90;;;;;;5075203;28;20071;-82
2021/12/08 01:17:59;;;;;;;19.08;6.38;;;-1.60;99.90;;;;;;5075351;28;20052;-83
2021/12/08 01:20:26;;;;;;;12.07;5.35;;;-1.70;99.90;;;;;;5075096;28;20063;-83
2021/12/08 01:22:53;;;;;;;15.00;6.07;;;-1.70;99.90;;;;;;5076004;28;20045;-83
2021/12/08 01:25:20;;;;;;;12.75;5.97;;;-1.80;99.90;;;;;;5076120;28;20102;-83
2021/12/08 01:27:47;;;;;;;12.02;6.07;;;-1.80;99.90;;;;;;5076709;28;20056;-83
2021/12/08 01:30:14;;;;;;;12.15;6.20;;;-1.90;99.90;;;;;;5077415;28;20044;-83
2021/12/08 01:32:42;;;;;;;12.95;5.63;;;-2.00;99.90;;;;;;5080430;28;20078;-84
2021/12/08 01:35:10;;;;;;;18.15;6.65;;;-2.00;99.90;;;;;;5082603;28;20056;-84
2021/12/08 01:37:38;;;;;;;17.50;6.97;;;-1.90;99.90;;;;;;5083600;28;20052;-83
2021/12/08 01:40:09;;;;;;;16.00;6.57;;;-1.80;99.90;;;;;;5078026;28;20086;-84
2021/12/08 01:42:36;;;;;;;14.43;7.03;;;-1.80;99.90;;;;;;5078075;28;20116;-83
2021/12/08 01:47:50;;;;;;;15.85;7.85;;;-1.80;99.90;;;;;;5096881;28;20136;-83
2021/12/08 01:50:17;;;;;;;15.63;8.38;;;-1.70;99.90;;;;;;5078847;28;20048;-83
2021/12/08 01:52:44;;;;;;;22.10;9.98;;;-1.60;99.90;;;;;;5078625;28;20052;-83
2021/12/08 01:55:11;;;;;;;19.35;10.38;;;-1.40;99.90;;;;;;5079085;28;20075;-83
2021/12/08 01:57:43;;;;;;;20.38;10.10;;;-1.20;99.90;;;;;;5080125;28;20055;-83
2021/12/08 02:00:27;;;;;;;18.10;9.98;;;-1.20;99.90;;;;;;5078636;28;20105;-83
2021/12/08 02:02:54;;;;;;;16.90;10.38;;;-1.10;99.90;;;;;;5078624;28;20041;-83
2021/12/08 02:05:21;;;;;;;21.27;10.32;;;-1.10;99.90;;;;;;5097167;28;20048;-83
2021/12/08 02:07:49;;;;;;;14.25;9.25;;;-1.00;99.90;;;;;;5079126;28;20250;-83
2021/12/08 02:10:16;;;;;;;20.92;10.10;;;-0.80;99.90;;;;;;5079179;28;20067;-83
2021/12/08 02:12:42;;;;;;;11.38;9.27;;;-0.80;99.90;;;;;;5079365;28;20066;-83
2021/12/08 02:15:13;;;;;;;18.95;11.00;;;-0.70;99.90;;;;;;5082634;28;20523;-82
2021/12/08 02:17:40;;;;;;;16.88;8.93;;;-0.40;99.90;;;;;;5101760;28;20086;-83
2021/12/08 02:20:10;;;;;;;17.13;9.07;;;-0.40;99.90;;;;;;5084157;28;20071;-84
2021/12/08 02:22:38;;;;;;;17.20;9.18;;;-0.30;99.90;;;;;;5083599;28;20044;-83
2021/12/08 02:25:07;;;;;;;15.55;9.98;;;-0.30;99.90;;;;;;5083595;28;20496;-83
2021/12/08 02:27:35;;;;;;;12.60;9.10;;;-0.20;99.90;;;;;;5083337;28;20135;-83
2021/12/08 02:30:35;;;;;;;15.32;9.13;;;-0.10;99.90;;;;;;5083767;28;20459;-83
2021/12/08 02:46:48;;;;;;;8.93;6.13;;;0.30;99.90;;;;;;5102524;28;20086;-83
2021/12/08 02:49:16;;;;;;;10.15;6.50;;;0.20;99.90;;;;;;5085608;28;20071;-83
2021/12/08 02:51:44;;;;;;;14.25;7.05;;;0.20;99.90;;;;;;5102404;28;20058;-83
2021/12/08 02:54:11;;;;;;;14.35;7.40;;;0.10;99.90;;;;;;5086527;28;20048;-83
2021/12/08 02:56:39;;;;;;;15.50;7.55;;;0.00;99.90;;;;;;5089546;28;20421;-83
2021/12/08 02:59:06;;;;;;;10.93;6.25;;;0.00;99.90;;;;;;5086863;28;20076;-83
2021/12/08 03:01:34;;;;;;;15.25;6.80;;;0.10;99.90;;;;;;5084089;28;20101;-82
2021/12/08 03:04:02;;;;;;;16.33;6.55;;;0.20;99.90;;;;;;5081264;28;20047;-83
2021/12/08 03:06:29;;;;;;;10.10;6.43;;;0.40;99.90;;;;;;5079429;28;20073;-81
2021/12/08 03:08:56;;;;;;;14.90;6.28;;;0.30;99.90;;;;;;5097358;28;20136;-83
2021/12/08 03:11:24;;;;;;;13.73;5.95;;;0.40;99.90;;;;;;5079341;28;20130;-83
2021/12/08 03:14:21;;;;;;;13.40;5.22;;;0.50;99.90;;;;;;5078889;28;20052;-82
2021/12/08 03:16:51;;;;;;;11.32;5.60;;;0.60;99.90;;;;;;5058685;28;20079;-83
2021/12/08 03:19:21;;;;;;;10.05;4.70;;;0.60;99.90;;;;;;5078870;28;20469;-81
2021/12/08 03:21:49;;;;;;;7.35;4.60;;;0.70;99.90;;;;;;5078811;28;20048;-82
2021/12/08 03:29:46;;;;;;;8.30;3.28;;;0.90;99.90;;;;;;5096790;28;20040;-82
2021/12/08 03:32:17;;;;;;;9.40;3.42;;;1.10;99.90;;;;;;5096955;28;20140;-82
2021/12/08 03:34:52;;;;;;;9.18;3.80;;;1.10;99.90;;;;;;5078786;28;20468;-83
2021/12/08 03:37:24;;;;;;;10.18;3.25;;;1.20;99.90;;;;;;5078944;28;20097;-83
2021/12/08 03:39:51;;;;;;;7.43;3.13;;;1.20;99.90;;;;;;5078945;28;20509;-80
2021/12/08 03:42:20;;;;;;;3.95;2.58;;;1.20;99.90;;;;;;5079321;28;20082;-82
2021/12/08 03:44:49;;;;;;;3.58;2.65;;;1.20;99.90;;;;;;5079764;28;20052;-81
2021/12/08 03:47:24;;;;;;;7.75;3.00;;;1.30;99.90;;;;;;5080228;28;20102;-82
2021/12/08 03:49:52;;;;;;;6.78;2.40;;;1.30;99.90;;;;;;5098611;28;20055;-83
2021/12/08 03:52:19;;;;;;;7.03;2.85;;;1.30;99.90;;;;;;5080574;28;20051;-80
2021/12/08 03:54:45;;;;;;;3.10;2.10;;;1.30;99.90;;;;;;5081242;28;20524;-81
2021/12/08 03:57:12;;;;;;;4.55;2.50;;;1.30;99.90;;;;;;5081506;28;20056;-80
2021/12/08 03:59:39;;;;;;;5.30;2.42;;;1.40;99.90;;;;;;5081241;28;20059;-83
2021/12/08 04:02:06;;;;;;;2.83;2.05;;;1.50;99.90;;;;;;5082786;28;20055;-83
2021/12/08 04:04:41;;;;;;;3.83;2.33;;;1.60;99.90;;;;;;5083396;28;20075;-81
2021/12/08 04:07:09;;;;;;;2.95;2.25;;;1.60;99.90;;;;;;5084517;28;20044;-81
2021/12/08 04:09:45;;;;;;;5.20;2.13;;;1.60;99.90;;;;;;5084314;28;20063;-81
2021/12/08 04:12:16;;;;;;;4.78;2.25;;;1.60;99.90;;;;;;5085584;28;20064;-81
2021/12/08 04:14:49;;;;;;;3.10;2.03;;;1.70;99.90;;;;;;5098916;28;20079;-84
2021/12/08 04:17:33;;;;;;;4.60;2.40;;;1.60;99.90;;;;;;5077996;28;20127;-82
2021/12/08 04:20:12;;;;;;;4.50;1.67;;;1.70;99.90;;;;;;5078598;28;20083;-81
2021/12/08 04:22:41;;;;;;;3.67;2.15;;;1.70;99.90;;;;;;5096028;28;20489;-83
2021/12/08 04:25:18;;;;;;;5.70;2.00;;;1.60;99.90;;;;;;5077580;28;20572;-80
2021/12/08 04:27:48;;;;;;;3.42;1.95;;;1.60;99.90;;;;;;5077471;28;20044;-80
2021/12/08 04:30:29;;;;;;;3.38;1.98;;;1.70;99.90;;;;;;5077679;28;20083;-83
2021/12/08 04:32:56;;;;;;;1.90;1.75;;;1.70;99.90;;;;;;5096047;28;20500;-81
2021/12/08 04:35:23;;;;;;;4.03;1.55;;;1.80;99.90;;;;;;5077536;28;20520;-82
2021/12/08 04:37:56;;;;;;;2.80;1.55;;;1.80;99.90;;;;;;5077361;28;20083;-82
2021/12/08 04:43:09;;;;;;;5.55;1.70;;;1.80;99.90;;;;;;5095944;28;20076;-83
2021/12/08 04:46:17;;;;;;;4.18;1.50;;;1.80;99.90;;;;;;5077801;28;20071;-83
2021/12/08 05:03:50;;;;;;;4.55;1.42;;;1.80;99.90;;;;;;5096565;28;20485;-83
2021/12/08 05:06:36;;;;;;;3.88;1.27;;;1.80;99.90;;;;;;5078761;28;20485;-82
2021/12/08 05:09:08;;;;;;;1.30;1.20;;;1.80;99.90;;;;;;5078677;28;20460;-82
2021/12/08 05:11:39;;;;;;;4.00;1.70;;;1.90;99.90;;;;;;5097800;28;20048;-83
2021/12/08 05:14:17;;;;;;;8.13;1.60;;;1.80;99.90;;;;;;5080788;28;20424;-82
2021/12/08 05:16:47;;;;;;;4.40;1.88;;;1.90;99.90;;;;;;5080350;28;20083;-83
2021/12/08 05:19:18;;;;;;;3.90;1.38;;;1.90;99.90;;;;;;5081779;28;20052;-81
2021/12/08 05:22:05;;;;;;;3.88;1.90;;;2.00;99.90;;;;;;5080937;28;20070;-83
2021/12/08 05:24:36;;;;;;;2.95;1.70;;;2.00;99.90;;;;;;5100295;28;20048;-82
2021/12/08 05:27:07;;;;;;;4.78;1.35;;;2.10;99.90;;;;;;5083264;28;20048;-81
2021/12/08 05:29:39;;;;;;;3.70;1.80;;;2.10;99.90;;;;;;5101928;28;20068;-82
2021/12/08 05:32:06;;;;;;;2.38;1.23;;;2.10;99.90;;;;;;5072754;22;20049;-80
2021/12/08 05:34:35;;;;;;;6.80;2.03;;;2.10;99.90;;;;;;5063726;28;20045;-81
2021/12/08 05:37:04;;;;;;;5.80;1.65;;;2.10;99.90;;;;;;5063371;28;20049;-81
2021/12/08 05:39:32;;;;;;;3.88;1.90;;;2.10;99.90;;;;;;5062133;28;20055;-82
2021/12/08 05:42:11;;;;;;;3.45;1.73;;;2.10;99.90;;;;;;5062259;28;20108;-81
2021/12/08 05:44:39;;;;;;;2.15;1.50;;;2.20;99.90;;;;;;5078842;28;20469;-79
2021/12/08 05:47:13;;;;;;;4.03;2.08;;;2.20;99.90;;;;;;5061361;28;20112;-80
2021/12/08 05:49:40;;;;;;;3.33;1.95;;;2.30;99.90;;;;;;5064392;28;20116;-80
2021/12/08 05:52:08;;;;;;;3.95;1.88;;;2.30;99.90;;;;;;5066017;28;20139;-81
2021/12/08 05:54:38;;;;;;;4.78;2.00;;;2.30;99.90;;;;;;5063712;28;20135;-82
2021/12/08 05:57:16;;;;;;;7.93;2.03;;;2.30;99.90;;;;;;5063977;28;20076;-81
2021/12/08 05:59:45;;;;;;;5.90;2.55;;;2.30;99.90;;;;;;5080080;28;20087;-81
2021/12/08 06:02:22;;;;;;;3.40;2.05;;;2.30;99.90;;;;;;5065404;28;20044;-80
2021/12/08 06:04:50;;;;;;;2.97;2.10;;;2.30;99.90;;;;;;5082733;28;20047;-81
2021/12/08 06:07:22;;;;;;;11.05;2.97;;;2.30;99.90;;;;;;5083673;28;20080;-81
2021/12/08 06:09:55;;;;;;;4.18;2.58;;;2.20;99.90;;;;;;5083924;28;20163;-80
2021/12/08 06:12:22;;;;;;;5.60;1.90;;;2.20;99.90;;;;;;5080869;28;20573;-81
2021/12/08 06:14:54;;;;;;;4.05;2.40;;;2.20;99.90;;;;;;5064559;28;20079;-80
2021/12/08 06:17:25;;;;;;;3.17;2.22;;;2.20;99.90;;;;;;5066863;28;20068;-80
2021/12/08 06:19:52;;;;;;;5.78;2.30;;;2.20;99.90;;;;;;5113601;23;20468;-90
2021/12/08 06:22:22;;;;;;;5.25;2.55;;;2.10;99.90;;;;;;5076319;28;20053;-90
2021/12/08 06:24:49;;;;;;;3.17;2.42;;;2.20;99.90;;;;;;5079378;28;20134;-91
2021/12/08 06:27:16;;;;;;;4.97;2.20;;;2.20;99.90;;;;;;5079560;28;20131;-91
2021/12/08 06:29:45;;;;;;;4.65;2.42;;;2.20;99.90;;;;;;5079498;28;20051;-90
2021/12/08 06:32:14;;;;;;;4.57;2.50;;;2.20;99.90;;;;;;5097361;28;20040;-90
2021/12/08 06:34:44;;;;;;;3.22;2.40;;;2.10;99.90;;;;;;5079165;28;20139;-91
2021/12/08 06:37:16;;;;;;;2.63;2.25;;;2.10;99.90;;;;;;5079414;28;20139;-91
2021/12/08 06:39:54;;;;;;;3.90;2.10;;;2.10;99.90;;;;;;5097119;28;20056;-90
2021/12/08 06:42:26;;;;;;;4.03;2.42;;;2.10;99.90;;;;;;5079059;28;20410;-91
2021/12/08 06:44:54;;;;;;;6.80;2.90;;;2.00;99.90;;;;;;5078891;28;20056;-90
2021/12/08 06:47:26;;;;;;;6.97;2.83;;;2.00;99.90;;;;;;5078886;28;20076;-91
2021/12/08 06:49:56;;;;;;;4.78;2.80;;;2.00;99.90;;;;;;5079001;28;20138;-90
2021/12/08 06:52:27;;;;;;;4.90;3.00;;;2.10;99.90;;;;;;5078913;28;20071;-90
2021/12/08 06:55:07;;;;;;;3.10;2.33;;;2.00;99.90;;;;;;5096423;28;20048;-90
2021/12/08 06:57:44;;;;;;;4.40;2.55;;;2.10;99.90;;;;;;5079091;28;20044;-90
2021/12/08 07:00:22;;;;;;;4.82;3.03;;;2.10;99.90;;;;;;5077724;28;20055;-91
2021/12/08 07:03:03;;;;;;;6.43;2.78;;;2.10;99.90;;;;;;5078578;28;20048;-92
2021/12/08 07:08:19;;;;;;;6.82;2.38;;;2.20;99.90;;;;;;5095475;28;20072;-92
2021/12/08 07:10:48;;;;;;;3.65;2.85;;;2.20;99.90;;;;;;5078128;28;20101;-90
2021/12/08 07:13:25;;;;;;;5.82;3.30;;;2.20;99.90;;;;;;5095081;28;20056;-90
2021/12/08 07:15:57;;;;;;;6.57;3.88;;;2.20;99.90;;;;;;5078544;28;20403;-91
2021/12/08 07:18:36;;;;;;;8.10;4.57;;;2.20;99.90;;;;;;5078107;28;20050;-89
2021/12/08 07:21:06;;;;;;;6.40;3.13;;;2.20;99.90;;;;;;5073793;28;20123;-89
2021/12/08 07:23:58;;;;;;;2.50;2.30;;;2.20;99.90;;;;;;5070577;28;20044;-88
2021/12/08 07:26:28;;;;;;;4.22;2.78;;;2.20;99.90;;;;;;5072044;28;20083;-90
2021/12/08 07:28:57;;;;;;;5.20;2.78;;;2.20;99.90;;;;;;5075055;28;20101;-90
2021/12/08 07:31:31;;;;;;;7.15;3.00;;;2.30;99.90;;;;;;5077883;28;20044;-88
2021/12/08 07:34:04;;;;;;;3.70;2.92;;;2.20;99.90;;;;;;5077758;28;20059;-89
2021/12/08 07:36:35;;;;;;;3.75;2.78;;;2.30;99.90;;;;;;5077476;28;20107;-89
2021/12/08 07:39:06;;;;;;;6.40;2.60;;;2.30;99.90;;;;;;5077548;28;20074;-89
2021/12/08 07:41:37;;;;;;;3.00;2.70;;;2.30;99.90;;;;;;5071725;28;20044;-90
2021/12/08 07:44:09;;;;;;;4.60;2.63;;;2.30;99.90;;;;;;5068408;28;20040;-91
2021/12/08 07:46:54;;;;;;;7.47;3.08;;;2.20;99.90;;;;;;5067588;28;20127;-91
2021/12/08 07:49:46;;;;;;;4.10;2.60;;;2.30;99.90;;;;;;5071197;28;20048;-92
2021/12/08 07:52:20;;;;;;;6.10;3.78;;;2.30;99.90;;;;;;5077341;28;20043;-91
2021/12/08 07:54:50;;;;;;;5.57;3.30;;;2.30;99.90;;;;;;5070159;28;20058;-89
2021/12/08 07:57:21;;;;;;;8.45;4.63;;;2.30;99.90;;;;;;5082139;28;20047;-91
2021/12/08 07:59:52;;;;;;;7.07;4.57;;;2.30;99.90;;;;;;5084585;28;20050;-90
2021/12/08 08:02:25;;;;;;;5.47;3.03;;;2.30;99.90;;;;;;5081877;28;20047;-90
2021/12/08 08:04:55;;;;;;;3.65;3.35;;;2.30;99.90;;;;;;5065684;28;20488;-91
2021/12/08 08:07:22;;;;;;;4.30;3.15;;;2.30;99.90;;;;;;5066916;28;20058;-91
2021/12/08 08:09:59;;;;;;;3.83;3.10;;;2.30;99.90;;;;;;5085681;28;20097;-92
2021/12/08 08:12:30;;;;;;;5.38;2.97;;;2.30;99.90;;;;;;5084995;28;20044;-91
2021/12/08 08:15:00;;;;;;;4.50;2.83;;;2.40;99.90;;;;;;5059403;28;20052;-90
2021/12/08 08:17:35;;;;;;;4.53;3.72;;;2.40;99.90;;;;;;5074423;28;20040;-91
2021/12/08 08:20:14;;;;;;;4.97;2.80;;;2.40;99.90;;;;;;5056923;28;20135;-92
2021/12/08 08:22:42;;;;;;;7.85;3.22;;;2.40;99.90;;;;;;5073407;28;20056;-90
2021/12/08 08:25:12;;;;;;;5.10;2.58;;;2.40;99.90;;;;;;5074080;28;20045;-89
2021/12/08 08:27:39;;;;;;;3.88;3.22;;;2.40;99.90;;;;;;5074270;28;20068;-90
2021/12/08 08:30:11;;;;;;;5.13;3.25;;;2.40;99.90;;;;;;5056704;28;20048;-91
2021/12/08 08:32:40;;;;;;;3.60;2.90;;;2.40;99.90;;;;;;5074101;28;20055;-90
2021/12/08 08:35:22;;;;;;;5.57;2.88;;;2.40;99.90;;;;;;5075345;28;20074;-91
2021/12/08 08:37:51;;;;;;;6.15;4.28;;;2.30;99.90;;;;;;5070706;28;20045;-88
2021/12/08 08:40:36;;;;;;;9.90;4.38;;;2.40;99.90;;;;;;5076098;28;20048;-91
2021/12/08 08:43:03;;;;;;;4.72;3.13;;;2.40;99.90;;;;;;5056356;28;20048;-91
2021/12/08 08:45:37;;;;;;;5.68;2.97;;;2.40;99.90;;;;;;5056356;28;20085;-91
2021/12/08 08:48:11;;;;;;;5.90;3.20;;;2.40;99.90;;;;;;5081322;28;20051;-91
2021/12/08 08:50:47;;;;;;;5.80;3.45;;;2.40;99.90;;;;;;5090711;28;20510;-90
2021/12/08 08:53:15;;;;;;;7.40;3.95;;;2.40;99.90;;;;;;5076148;28;20410;-91
2021/12/08 08:55:52;;;;;;;6.57;3.92;;;2.30;99.90;;;;;;5093947;28;20133;-89
2021/12/08 08:58:22;;;;;;;5.13;3.15;;;2.30;99.90;;;;;;5093623;28;20055;-90
2021/12/08 09:01:09;;;;;;;5.88;3.33;;;2.40;99.90;;;;;;5076040;28;20415;-89
2021/12/08 09:03:45;;;;;;;10.73;3.60;;;2.40;99.90;;;;;;5076549;28;20048;-90
2021/12/08 09:06:29;;;;;;;5.28;2.88;;;2.30;99.90;;;;;;5076231;28;20048;-90
2021/12/08 09:08:56;;;;;;;6.85;3.60;;;2.30;99.90;;;;;;5075124;28;20083;-90
2021/12/08 09:11:29;;;;;;;3.90;3.08;;;2.30;99.90;;;;;;5074304;28;20048;-89
2021/12/08 09:14:00;;;;;;;3.43;2.63;;;2.30;99.90;;;;;;5074135;28;20480;-90
2021/12/08 09:16:38;;;;;;;3.30;3.00;;;2.30;99.90;;;;;;5074396;28;20294;-90
2021/12/08 09:19:19;;;;;;;2.88;2.65;;;2.30;99.90;;;;;;5074425;28;20079;-90
2021/12/08 09:22:16;;;;;;;3.03;2.65;;;2.40;99.90;;;;;;5074111;28;20066;-90
2021/12/08 09:24:56;;;;;;;4.55;3.28;;;2.40;99.90;;;;;;5092838;28;20582;-89
2021/12/08 09:27:32;;;;;;;4.20;2.67;;;2.40;99.90;;;;;;5092538;28;20492;-90
2021/12/08 09:30:06;;;;;;;4.20;3.00;;;2.50;99.90;;;;;;5075615;28;20131;-90
2021/12/08 09:33:07;;;;;;;5.97;2.78;;;2.60;99.90;;;;;;5075832;28;20048;-90
2021/12/08 09:35:42;;;;;;;6.68;3.08;;;2.60;99.90;;;;;;5075056;28;20048;-89
2021/12/08 09:38:27;;;;;;;3.53;2.55;;;2.70;99.90;;;;;;5093540;28;20105;-91
2021/12/08 09:41:05;;;;;;;3.78;3.28;;;2.80;99.90;;;;;;5074961;28;20079;-90
2021/12/08 09:43:49;;;;;;;4.32;2.65;;;2.80;99.90;;;;;;5075268;28;20048;-90
2021/12/08 09:46:27;;;;;;;4.55;2.40;;;2.90;99.90;;;;;;5073187;28;20055;-90
2021/12/08 09:48:59;;;;;;;2.53;2.30;;;2.90;99.90;;;;;;5076254;28;20531;-90
2021/12/08 09:51:28;;;;;;;5.90;2.67;;;3.00;99.90;;;;;;5077034;28;20040;-90
2021/12/08 09:53:55;;;;;;;3.17;2.40;;;3.00;99.90;;;;;;5103148;28;20048;-90
2021/12/08 09:56:23;;;;;;;3.70;2.38;;;3.10;99.90;;;;;;5095649;28;20124;-90
2021/12/08 09:58:51;;;;;;;4.07;2.50;;;3.20;99.90;;;;;;5093170;28;20044;-90
2021/12/08 10:01:20;;;;;;;2.40;2.20;;;3.30;99.90;;;;;;5093195;28;20438;-90
2021/12/08 10:03:49;;;;;;;3.35;2.58;;;3.50;99.90;;;;;;5075212;28;20048;-90
2021/12/08 10:06:18;;;;;;;3.08;2.78;;;3.70;99.90;;;;;;5093332;28;20083;-90
2021/12/08 10:08:46;;;;;;;4.18;2.00;;;3.90;99.90;;;;;;5093328;28;20052;-91
2021/12/08 10:11:16;;;;;;;3.30;2.58;;;4.00;99.90;;;;;;5075389;28;20083;-90
2021/12/08 10:13:45;;;;;;;7.10;2.17;;;3.90;99.90;;;;;;5093001;28;20054;-90
2021/12/08 10:16:13;;;;;;;2.95;2.30;;;3.80;99.90;;;;;;5075508;28;20094;-90
2021/12/08 10:18:42;;;;;;;2.72;2.10;;;3.90;99.90;;;;;;5092931;28;20048;-90
2021/12/08 10:21:10;;;;;;;3.20;2.67;;;3.90;99.90;;;;;;5092899;28;20058;-90
2021/12/08 10:23:38;;;;;;;6.63;2.60;;;3.90;99.90;;;;;;5092661;28;20056;-89
2021/12/08 10:26:14;;;;;;;3.75;2.35;;;3.80;99.90;;;;;;5074387;28;20044;-90
2021/12/08 10:28:46;;;;;;;5.55;3.25;;;3.70;99.90;;;;;;5074478;28;20056;-90
2021/12/08 10:31:30;;;;;;;3.90;2.65;;;3.60;99.90;;;;;;5093201;28;20044;-89
2021/12/08 10:34:14;;;;;;;4.53;2.95;;;3.60;99.90;;;;;;5075733;28;20051;-90
2021/12/08 10:36:47;;;;;;;;;;;3.60;99.90;;;;;;5097047;28;20051;-91
2021/12/08 10:39:31;;;;;;;3.83;2.10;;;3.60;99.90;;;;;;5096454;28;19920;-89
2021/12/08 10:42:09;;;;;;;6.38;2.00;;;3.50;99.90;;;;;;5079510;28;20042;-91
2021/12/08 10:44:47;;;;;;;2.42;2.22;;;3.50;99.90;;;;;;5096938;28;20047;-91
2021/12/08 10:47:30;;;;;;;3.28;2.15;;;3.50;99.90;;;;;;5078692;28;20410;-89
2021/12/08 10:55:33;;;;;;;2.50;2.30;;;3.50;99.90;;;;;;5095978;28;20479;-90
2021/12/08 10:58:00;;;;;;;2.75;2.17;;;3.50;99.90;;;;;;5078375;28;20052;-89
2021/12/08 11:00:34;;;;;;;1.95;1.85;;;3.60;99.90;;;;;;5096050;28;20048;-89
2021/12/08 11:03:08;;;;;;;2.85;2.40;;;3.60;99.90;;;;;;5077522;28;20134;-90
2021/12/08 11:05:40;;;;;;;2.60;1.83;;;3.70;99.90;;;;;;5077638;28;20058;-89
2021/12/08 11:08:09;;;;;;;2.58;1.77;;;3.80;99.90;;;;;;5082162;28;20047;-89
2021/12/08 11:10:44;;;;;;;2.95;1.90;;;4.00;99.90;;;;;;5090005;28;20048;-90
2021/12/08 11:13:13;;;;;;;4.38;1.88;;;4.00;99.90;;;;;;5078148;28;20163;-90
2021/12/08 11:15:42;;;;;;;1.98;1.80;;;4.00;99.90;;;;;;5077645;28;20044;-90
2021/12/08 11:18:15;;;;;;;3.42;2.05;;;3.90;99.90;;;;;;5095003;28;20597;-89
2021/12/08 11:20:45;;;;;;;2.75;2.55;;;3.80;99.90;;;;;;5077115;28;20087;-89
2021/12/08 11:23:16;;;;;;;2.95;2.00;;;3.80;99.90;;;;;;5094957;28;20062;-90
2021/12/08 11:25:46;;;;;;;3.67;1.88;;;4.00;99.90;;;;;;5077322;28;20130;-90
2021/12/08 11:28:25;;;;;;;7.20;2.22;;;4.10;99.90;;;;;;5077399;28;20052;-89
2021/12/08 11:30:52;;;;;;;3.75;2.10;;;4.10;99.90;;;;;;5077121;28;20048;-89
2021/12/08 11:33:23;;;;;;;5.72;2.00;;;3.90;99.90;;;;;;5094530;28;20059;-89
2021/12/08 11:36:16;;;;;;;2.03;1.85;;;3.80;99.90;;;;;;5077160;28;20089;-89
2021/12/08 11:38:46;;;;;;;3.35;2.17;;;4.00;99.90;;;;;;5072626;28;20051;-90
2021/12/08 11:41:36;;;;;;;3.83;2.10;;;4.10;99.90;;;;;;5094417;28;20058;-88
2021/12/08 11:44:08;;;;;;;3.50;2.08;;;4.00;99.90;;;;;;5094579;28;20051;-88
2021/12/08 11:46:45;;;;;;;2.50;2.00;;;4.00;99.90;;;;;;5093852;28;20636;-89
2021/12/08 11:49:12;;;;;;;2.58;2.10;;;4.00;99.90;;;;;;5093806;28;20078;-89
2021/12/08 11:51:42;;;;;;;5.20;2.30;;;3.90;99.90;;;;;;5074447;28;20544;-89
2021/12/08 11:54:33;;;;;;;2.35;1.88;;;3.90;99.90;;;;;;5076411;28;20131;-89
2021/12/08 11:57:25;;;;;;;3.42;2.22;;;3.80;99.90;;;;;;5076621;28;20119;-89
2021/12/08 12:00:03;;;;;;;5.25;2.45;;;3.70;99.90;;;;;;5065305;28;20048;-89
2021/12/08 12:02:39;;;;;;;4.85;2.30;;;3.70;99.90;;;;;;5076300;28;20464;-90
2021/12/08 12:05:10;;;;;;;4.18;2.20;;;3.60;99.90;;;;;;5076242;28;20056;-88
2021/12/08 12:07:39;;;;;;;3.65;2.13;;;3.50;99.90;;;;;;5076181;28;20063;-89
2021/12/08 12:10:08;;;;;;;4.30;2.30;;;3.50;99.90;;;;;;5076213;28;20179;-90
2021/12/08 12:12:41;;;;;;;4.18;2.53;;;3.60;99.90;;;;;;5076261;28;20051;-89
2021/12/08 12:15:10;;;;;;;3.67;2.40;;;3.50;99.90;;;;;;5094162;28;20055;-89
2021/12/08 12:17:38;;;;;;;4.30;2.42;;;3.60;99.90;;;;;;5075900;28;20051;-89
2021/12/08 12:20:07;;;;;;;3.50;3.20;;;3.60;99.90;;;;;;5075842;28;20142;-89
2021/12/08 12:23:07;;;;;;;3.60;2.75;;;3.60;99.90;;;;;;5076045;28;20506;-90
2021/12/08 12:25:49;;;;;;;3.25;2.95;;;3.70;99.90;;;;;;5081225;28;20048;-89
2021/12/08 12:28:27;;;;;;;8.70;2.30;;;3.80;99.90;;;;;;5106758;28;20415;-90
2021/12/08 12:31:41;;;;;;;2.67;2.20;;;3.80;99.90;;;;;;5093741;28;20479;-90
2021/12/08 12:34:31;;;;;;;2.88;2.47;;;3.80;99.90;;;;;;4992426;28;20537;-90
2021/12/08 12:36:59;;;;;;;3.70;2.75;;;3.70;99.90;;;;;;5089107;28;20052;-90
2021/12/08 12:39:28;;;;;;;3.03;2.72;;;3.70;99.90;;;;;;5075814;28;20126;-89
2021/12/08 12:42:10;;;;;;;2.92;2.55;;;3.60;99.90;;;;;;5076060;28;20093;-89
2021/12/08 12:44:40;;;;;;;5.82;2.53;;;3.60;99.90;;;;;;5076002;28;20060;-89
2021/12/08 12:47:12;;;;;;;5.60;2.53;;;3.70;99.90;;;;;;5076152;28;20107;-89
2021/12/08 12:49:45;;;;;;;11.23;3.05;;;3.60;99.90;;;;;;5076212;28;20054;-89
2021/12/08 12:52:14;;;;;;;4.93;2.85;;;3.60;99.90;;;;;;5076156;28;20381;-89
2021/12/08 12:54:43;;;;;;;2.65;2.45;;;3.60;99.90;;;;;;5076069;28;20495;-89
2021/12/08 12:57:10;;;;;;;2.80;2.50;;;3.50;99.90;;;;;;5093674;28;20427;-89
2021/12/08 12:59:44;;;;;;;3.95;2.63;;;3.60;99.90;;;;;;5092242;28;20498;-89
2021/12/08 13:02:13;;;;;;;;;;;3.60;99.90;;;;;;5096986;28;20048;-89
2021/12/08 13:05:09;;;;;;;4.35;2.80;;;3.70;99.90;;;;;;5076286;28;19924;-90
2021/12/08 13:07:54;;;;;;;4.43;2.60;;;3.80;99.90;;;;;;5075497;28;20048;-88
2021/12/08 13:10:29;;;;;;;5.43;3.30;;;3.70;99.90;;;;;;5093298;28;20498;-88
2021/12/08 13:13:10;;;;;;;5.70;3.22;;;3.40;99.90;;;;;;5075888;28;20058;-88
2021/12/08 13:15:38;;;;;;;6.03;2.65;;;3.30;99.90;;;;;;5093924;28;20501;-88
2021/12/08 13:18:06;;;;;;;6.13;3.25;;;3.30;99.90;;;;;;5076271;28;20134;-89
2021/12/08 13:20:41;;;;;;;6.43;4.82;;;3.30;99.90;;;;;;5075921;28;20044;-89
2021/12/08 13:23:13;;;;;;;8.45;7.60;;;3.30;99.90;;;;;;5076162;28;20075;-88
2021/12/08 13:25:46;;;;;;;5.03;4.60;;;3.30;99.90;;;;;;5093092;28;20144;-88
2021/12/08 13:28:16;;;;;;;4.25;3.33;;;3.20;99.90;;;;;;5075801;28;20048;-88
2021/12/08 13:31:06;;;;;;;7.10;4.50;;;3.10;99.90;;;;;;5075399;28;20502;-88
2021/12/08 13:33:36;;;;;;;4.85;4.40;;;3.00;99.90;;;;;;5077087;28;20423;-88
2021/12/08 13:36:22;;;;;;;7.60;4.22;;;2.90;99.90;;;;;;5075661;28;20583;-88
2021/12/08 13:39:14;;;;;;;7.55;4.57;;;2.90;99.90;;;;;;5075699;28;20050;-87
2021/12/08 13:42:04;;;;;;;6.43;4.38;;;2.90;99.90;;;;;;5095909;28;20131;-88
2021/12/08 13:44:36;;;;;;;5.75;4.28;;;2.90;99.90;;;;;;5093020;28;20048;-88
2021/12/08 13:47:08;;;;;;;6.40;4.50;;;2.90;99.90;;;;;;5094484;28;20058;-88
2021/12/08 13:49:57;;;;;;;6.43;4.65;;;2.80;99.90;;;;;;5092519;28;20135;-87
2021/12/08 13:52:23;;;;;;;6.47;4.28;;;2.80;99.90;;;;;;5093330;28;20044;-88
2021/12/08 13:54:57;;;;;;;6.80;4.15;;;2.90;99.90;;;;;;5075697;28;20044;-89
2021/12/08 13:57:35;;;;;;;4.32;3.63;;;3.00;99.90;;;;;;5093434;28;20075;-90
2021/12/08 14:00:11;;;;;;;10.25;4.78;;;3.10;99.90;;;;;;5075558;28;20677;-90
2021/12/08 14:02:38;;;;;;;8.68;5.00;;;3.10;99.90;;;;;;5093864;28;20193;-89
2021/12/08 14:05:15;;;;;;;11.02;5.28;;;3.20;99.90;;;;;;5092811;28;20055;-89
2021/12/08 14:07:52;;;;;;;6.15;4.50;;;3.30;99.90;;;;;;5076360;28;20052;-89
2021/12/08 14:10:28;;;;;;;6.10;4.47;;;3.30;99.90;;;;;;5076537;28;20044;-89
2021/12/08 14:13:05;;;;;;;5.15;4.15;;;3.30;99.90;;;;;;5079007;28;20101;-89